Time;durP1;ratioP1;P1;durP2;ratioP2;P2;SDS_P1;SDS_P2;PMS_P1;PMS_P2;Temp;Humidity;BMP_temperature;BMP_pressure;BME280_temperature;BME280_humidity;BME280_pressure;Samples;Min_cycle;Max_cycle;Signal;HPM_P1;HPM_P2
2022/05/28 00:01:07;;;;;;;6.70;2.13;;;;;;;;;;4975976;28;20509;-53
2022/05/28 00:03:34;;;;;;;6.20;2.27;;;;;;;;;;4975411;28;20424;-53
2022/05/28 00:06:00;;;;;;;4.43;2.20;;;;;;;;;;4975871;28;20791;-53
2022/05/28 00:08:26;;;;;;;4.03;1.90;;;;;;;;;;4975388;28;20838;-52
2022/05/28 00:10:54;;;;;;;7.23;3.10;;;;;;;;;;4975809;28;20412;-53
2022/05/28 00:13:20;;;;;;;7.13;3.10;;;;;;;;;;4975448;28;20901;-53
2022/05/28 00:15:46;;;;;;;4.97;2.50;;;;;;;;;;4975751;28;20415;-53
2022/05/28 00:18:12;;;;;;;6.17;2.50;;;;;;;;;;4975349;28;20425;-54
2022/05/28 00:20:38;;;;;;;3.27;2.03;;;;;;;;;;4975346;28;20409;-53
2022/05/28 00:23:04;;;;;;;3.83;2.30;;;;;;;;;;4975139;28;20490;-53
2022/05/28 00:25:30;;;;;;;3.30;2.10;;;;;;;;;;4975520;28;20413;-55
2022/05/28 00:27:56;;;;;;;9.00;3.30;;;;;;;;;;4975340;28;20424;-53
2022/05/28 00:30:22;;;;;;;7.43;2.37;;;;;;;;;;4975320;28;20995;-53
2022/05/28 00:32:48;;;;;;;5.77;2.77;;;;;;;;;;4975002;28;20413;-53
2022/05/28 00:35:16;;;;;;;7.30;2.73;;;;;;;;;;4975200;28;20437;-52
2022/05/28 00:37:42;;;;;;;6.80;2.27;;;;;;;;;;4975096;28;20923;-53
2022/05/28 00:40:10;;;;;;;6.80;2.20;;;;;;;;;;4975162;28;20519;-53
2022/05/28 00:42:36;;;;;;;3.73;2.70;;;;;;;;;;4974471;28;20557;-55
2022/05/28 00:45:02;;;;;;;5.63;2.90;;;;;;;;;;4975237;28;21048;-54
2022/05/28 00:47:28;;;;;;;8.13;2.77;;;;;;;;;;4975808;28;20421;-58
2022/05/28 00:49:54;;;;;;;4.10;2.03;;;;;;;;;;4974993;28;20465;-56
2022/05/28 00:52:21;;;;;;;12.37;2.70;;;;;;;;;;4975651;28;20416;-57
2022/05/28 00:54:48;;;;;;;7.60;2.47;;;;;;;;;;4976237;28;20410;-58
2022/05/28 00:57:15;;;;;;;7.83;2.40;;;;;;;;;;4976005;28;20413;-58
2022/05/28 00:59:44;;;;;;;8.97;2.53;;;;;;;;;;4965943;28;20443;-58
2022/05/28 01:02:19;;;;;;;9.87;2.47;;;;;;;;;;4957668;28;20406;-58
2022/05/28 01:04:45;;;;;;;9.43;2.50;;;;;;;;;;4975854;28;20412;-58
2022/05/28 01:07:11;;;;;;;8.47;3.37;;;;;;;;;;4976004;28;20417;-58
2022/05/28 01:09:44;;;;;;;6.40;2.33;;;;;;;;;;4975440;28;20476;-58
2022/05/28 01:12:10;;;;;;;4.77;2.93;;;;;;;;;;4975707;28;20905;-57
2022/05/28 01:14:49;;;;;;;14.50;3.00;;;;;;;;;;4976037;28;20401;-57
2022/05/28 01:17:21;;;;;;;12.93;2.53;;;;;;;;;;4975523;28;20776;-58
2022/05/28 01:19:53;;;;;;;10.80;2.90;;;;;;;;;;4975687;28;20471;-57
2022/05/28 01:22:23;;;;;;;6.00;2.77;;;;;;;;;;4975544;28;20429;-57
2022/05/28 01:25:05;;;;;;;9.60;2.50;;;;;;;;;;4975964;28;20395;-58
2022/05/28 01:27:37;;;;;;;3.40;2.37;;;;;;;;;;4975519;28;20737;-57
2022/05/28 01:30:08;;;;;;;13.63;3.30;;;;;;;;;;4975473;28;20460;-58
2022/05/28 01:32:35;;;;;;;10.00;2.57;;;;;;;;;;4975592;28;20421;-58
2022/05/28 01:35:02;;;;;;;4.93;2.63;;;;;;;;;;4975775;28;20397;-58
2022/05/28 01:37:29;;;;;;;9.43;2.60;;;;;;;;;;4975646;28;20488;-59
2022/05/28 01:39:56;;;;;;;11.23;2.37;;;;;;;;;;4975364;28;20424;-58
2022/05/28 01:42:23;;;;;;;4.83;2.57;;;;;;;;;;4975060;28;20441;-57
2022/05/28 01:44:50;;;;;;;6.60;3.07;;;;;;;;;;4975320;28;20889;-58
2022/05/28 01:47:17;;;;;;;12.17;3.07;;;;;;;;;;4975056;28;20427;-58
2022/05/28 01:49:43;;;;;;;12.10;2.90;;;;;;;;;;4975477;28;20460;-58
2022/05/28 01:52:11;;;;;;;6.00;3.00;;;;;;;;;;4974830;28;20795;-58
2022/05/28 01:54:40;;;;;;;6.80;2.40;;;;;;;;;;4974867;28;20416;-58
2022/05/28 01:57:06;;;;;;;11.80;3.10;;;;;;;;;;4975126;28;20471;-58
2022/05/28 01:59:33;;;;;;;10.00;2.90;;;;;;;;;;4975299;28;20429;-59
2022/05/28 02:02:00;;;;;;;20.17;3.73;;;;;;;;;;4974516;28;20421;-57
2022/05/28 02:04:26;;;;;;;11.90;3.60;;;;;;;;;;4975175;28;20488;-58
2022/05/28 02:06:52;;;;;;;7.73;2.87;;;;;;;;;;4974741;28;20436;-58
2022/05/28 02:09:20;;;;;;;12.50;4.47;;;;;;;;;;4974786;28;20460;-58
2022/05/28 02:11:55;;;;;;;8.57;3.17;;;;;;;;;;4974482;28;20412;-57
2022/05/28 02:14:29;;;;;;;10.13;3.70;;;;;;;;;;4974666;28;20432;-58
2022/05/28 02:17:00;;;;;;;7.57;3.03;;;;;;;;;;4974597;28;20428;-58
2022/05/28 02:19:29;;;;;;;5.40;2.43;;;;;;;;;;4974698;28;20519;-58
2022/05/28 02:22:07;;;;;;;11.43;2.87;;;;;;;;;;4974880;28;20421;-57
2022/05/28 02:24:39;;;;;;;12.10;3.00;;;;;;;;;;4974909;28;20416;-58
2022/05/28 02:27:08;;;;;;;8.77;3.90;;;;;;;;;;4974684;28;20909;-57
2022/05/28 02:29:34;;;;;;;6.30;2.90;;;;;;;;;;4974232;28;20830;-58
2022/05/28 02:32:11;;;;;;;15.13;3.10;;;;;;;;;;4973878;28;20416;-58
2022/05/28 02:34:37;;;;;;;11.90;3.70;;;;;;;;;;4974811;28;20404;-59
2022/05/28 02:37:03;;;;;;;10.17;3.10;;;;;;;;;;4974440;28;20504;-58
2022/05/28 02:39:29;;;;;;;4.93;2.90;;;;;;;;;;4974675;28;20439;-58
2022/05/28 02:41:56;;;;;;;7.47;2.80;;;;;;;;;;4974300;28;20442;-58
2022/05/28 02:44:23;;;;;;;4.37;2.33;;;;;;;;;;4974540;28;20547;-56
2022/05/28 02:46:49;;;;;;;8.17;3.27;;;;;;;;;;4974387;28;20417;-58
2022/05/28 02:49:15;;;;;;;4.07;2.97;;;;;;;;;;4974246;28;20830;-58
2022/05/28 02:51:41;;;;;;;10.83;3.10;;;;;;;;;;4973770;28;20417;-57
2022/05/28 02:54:07;;;;;;;7.17;2.23;;;;;;;;;;4974195;28;20401;-58
2022/05/28 02:56:34;;;;;;;8.40;3.13;;;;;;;;;;4974142;28;20421;-58
2022/05/28 02:59:00;;;;;;;8.63;2.60;;;;;;;;;;4974195;28;20424;-57
2022/05/28 03:01:35;;;;;;;7.33;2.50;;;;;;;;;;4973915;28;20476;-57
2022/05/28 03:04:02;;;;;;;8.60;3.03;;;;;;;;;;4974248;28;20491;-58
2022/05/28 03:06:29;;;;;;;8.23;2.60;;;;;;;;;;4975305;28;20421;-57
2022/05/28 03:08:55;;;;;;;8.53;2.50;;;;;;;;;;4977681;28;20464;-58
2022/05/28 03:11:21;;;;;;;11.73;3.87;;;;;;;;;;4978029;28;20979;-58
2022/05/28 03:13:47;;;;;;;13.17;2.87;;;;;;;;;;4977718;28;20412;-58
2022/05/28 03:16:13;;;;;;;11.40;2.83;;;;;;;;;;4977738;28;20413;-58
2022/05/28 03:18:39;;;;;;;8.13;3.00;;;;;;;;;;4977615;28;20482;-58
2022/05/28 03:21:06;;;;;;;13.77;3.07;;;;;;;;;;4977927;28;20405;-57
2022/05/28 03:23:32;;;;;;;7.57;2.70;;;;;;;;;;4977540;28;20407;-57
2022/05/28 03:25:58;;;;;;;6.63;2.97;;;;;;;;;;4977102;28;20409;-57
2022/05/28 03:28:24;;;;;;;6.60;2.80;;;;;;;;;;4977392;28;20527;-58
2022/05/28 03:30:50;;;;;;;9.87;2.80;;;;;;;;;;4977485;28;20408;-57
2022/05/28 03:33:16;;;;;;;3.67;2.97;;;;;;;;;;4976983;28;20499;-58
2022/05/28 03:35:42;;;;;;;10.17;3.30;;;;;;;;;;4977627;28;20420;-59
2022/05/28 03:38:08;;;;;;;8.70;2.90;;;;;;;;;;4977735;28;20421;-58
2022/05/28 03:40:34;;;;;;;6.80;3.13;;;;;;;;;;4977578;28;20488;-58
2022/05/28 03:43:00;;;;;;;10.87;2.87;;;;;;;;;;4977320;28;20500;-59
2022/05/28 03:45:27;;;;;;;11.90;3.13;;;;;;;;;;4977882;28;20433;-58
2022/05/28 03:47:53;;;;;;;5.20;2.83;;;;;;;;;;4976306;28;20428;-56
2022/05/28 03:50:19;;;;;;;9.97;3.07;;;;;;;;;;4977253;28;20527;-58
2022/05/28 03:52:45;;;;;;;12.77;3.17;;;;;;;;;;4976017;28;20745;-58
2022/05/28 03:55:11;;;;;;;11.33;3.03;;;;;;;;;;4977224;28;20823;-58
2022/05/28 03:57:38;;;;;;;8.40;3.47;;;;;;;;;;4976902;28;20421;-58
2022/05/28 04:00:05;;;;;;;3.27;2.67;;;;;;;;;;4976836;28;20436;-57
2022/05/28 04:02:31;;;;;;;8.80;2.83;;;;;;;;;;4976940;28;20420;-58
2022/05/28 04:04:57;;;;;;;9.33;3.67;;;;;;;;;;4976855;28;20419;-57
2022/05/28 04:07:23;;;;;;;11.27;3.43;;;;;;;;;;4976668;28;20420;-58
2022/05/28 04:09:49;;;;;;;9.77;3.07;;;;;;;;;;4976904;28;20490;-57
2022/05/28 04:12:15;;;;;;;6.00;2.70;;;;;;;;;;4976728;28;20413;-57
2022/05/28 04:14:41;;;;;;;8.40;3.13;;;;;;;;;;4977078;28;20410;-58
2022/05/28 04:17:07;;;;;;;9.73;3.30;;;;;;;;;;4976222;28;20464;-58
2022/05/28 04:19:33;;;;;;;6.73;3.17;;;;;;;;;;4976893;28;20790;-59
2022/05/28 04:21:59;;;;;;;20.07;4.57;;;;;;;;;;4976160;28;20416;-58
2022/05/28 04:24:25;;;;;;;3.93;2.70;;;;;;;;;;4976545;28;20401;-58
2022/05/28 04:26:51;;;;;;;8.73;3.07;;;;;;;;;;4976253;28;20421;-57
2022/05/28 04:29:17;;;;;;;7.50;2.80;;;;;;;;;;4976421;28;20492;-58
2022/05/28 04:31:43;;;;;;;3.33;2.80;;;;;;;;;;4976724;28;20889;-58
2022/05/28 04:34:09;;;;;;;6.80;3.67;;;;;;;;;;4976278;28;20397;-58
2022/05/28 04:36:35;;;;;;;8.20;3.33;;;;;;;;;;4975944;28;20420;-57
2022/05/28 04:39:01;;;;;;;7.90;3.13;;;;;;;;;;4976030;28;20800;-57
2022/05/28 04:41:27;;;;;;;7.20;3.00;;;;;;;;;;4976139;28;20436;-57
2022/05/28 04:43:53;;;;;;;6.43;3.00;;;;;;;;;;4976217;28;20484;-58
2022/05/28 04:46:19;;;;;;;11.83;4.13;;;;;;;;;;4976252;28;20408;-58
2022/05/28 04:48:45;;;;;;;4.20;3.30;;;;;;;;;;4976191;28;20463;-58
2022/05/28 04:51:11;;;;;;;9.43;3.47;;;;;;;;;;4975983;28;20835;-58
2022/05/28 04:53:37;;;;;;;12.03;3.87;;;;;;;;;;4975894;28;20775;-57
2022/05/28 04:56:03;;;;;;;6.33;3.70;;;;;;;;;;4976224;28;20460;-58
2022/05/28 04:58:29;;;;;;;6.40;3.27;;;;;;;;;;4975578;28;20472;-58
2022/05/28 05:00:55;;;;;;;11.33;3.53;;;;;;;;;;4975659;28;20397;-58
2022/05/28 05:03:21;;;;;;;10.73;3.47;;;;;;;;;;4971808;28;21299;-58
2022/05/28 05:05:47;;;;;;;7.40;3.23;;;;;;;;;;4956364;29;20452;-57
2022/05/28 05:08:13;;;;;;;5.83;3.00;;;;;;;;;;4969916;28;20523;-57
2022/05/28 05:10:39;;;;;;;17.23;4.83;;;;;;;;;;4975647;28;20416;-58
2022/05/28 05:13:06;;;;;;;9.77;4.13;;;;;;;;;;4974848;28;21229;-58
2022/05/28 05:15:32;;;;;;;13.13;2.90;;;;;;;;;;4975632;28;20452;-57
2022/05/28 05:17:58;;;;;;;13.97;3.00;;;;;;;;;;4975352;28;20936;-57
2022/05/28 05:20:24;;;;;;;17.97;5.57;;;;;;;;;;4975590;28;20484;-58
2022/05/28 05:22:52;;;;;;;6.53;3.07;;;;;;;;;;4974746;28;20928;-57
2022/05/28 05:25:18;;;;;;;3.83;2.60;;;;;;;;;;4975310;28;20488;-58
2022/05/28 05:27:44;;;;;;;6.90;2.83;;;;;;;;;;4975629;28;20448;-57
2022/05/28 05:30:11;;;;;;;5.07;2.80;;;;;;;;;;4974556;28;20469;-56
2022/05/28 05:32:37;;;;;;;4.93;2.80;;;;;;;;;;4974858;28;20421;-57
2022/05/28 05:35:03;;;;;;;9.17;2.87;;;;;;;;;;4975352;28;20397;-57
2022/05/28 05:37:30;;;;;;;10.03;4.07;;;;;;;;;;4975061;28;20472;-58
2022/05/28 05:39:56;;;;;;;7.97;3.07;;;;;;;;;;4974528;28;20423;-58
2022/05/28 05:42:22;;;;;;;5.43;3.23;;;;;;;;;;4974607;28;20865;-58
2022/05/28 05:44:48;;;;;;;5.03;2.70;;;;;;;;;;4975071;28;20485;-58
2022/05/28 05:47:14;;;;;;;9.97;2.93;;;;;;;;;;4974985;28;20428;-58
2022/05/28 05:49:40;;;;;;;6.37;2.90;;;;;;;;;;4974788;28;20465;-58
2022/05/28 05:52:06;;;;;;;7.80;2.53;;;;;;;;;;4974474;28;20413;-57
2022/05/28 05:54:32;;;;;;;12.63;2.80;;;;;;;;;;4975114;28;20436;-57
2022/05/28 05:56:58;;;;;;;5.73;2.20;;;;;;;;;;4974473;28;20976;-58
2022/05/28 05:59:24;;;;;;;8.40;2.83;;;;;;;;;;4974207;28;20483;-58
2022/05/28 06:01:51;;;;;;;11.20;2.73;;;;;;;;;;4974453;28;20499;-58
2022/05/28 06:04:17;;;;;;;7.77;2.63;;;;;;;;;;4974100;28;20416;-58
2022/05/28 06:06:43;;;;;;;12.50;2.40;;;;;;;;;;4974117;28;20492;-58
2022/05/28 06:09:09;;;;;;;5.47;2.10;;;;;;;;;;4974091;28;20984;-58
2022/05/28 06:11:35;;;;;;;9.80;2.97;;;;;;;;;;4974304;28;20472;-58
2022/05/28 06:14:01;;;;;;;7.20;2.00;;;;;;;;;;4973893;28;20421;-58
2022/05/28 06:16:27;;;;;;;4.50;1.93;;;;;;;;;;4974443;28;20401;-57
2022/05/28 06:18:53;;;;;;;4.73;2.33;;;;;;;;;;4973642;28;20440;-58
2022/05/28 06:21:19;;;;;;;7.23;2.13;;;;;;;;;;4973755;28;20468;-57
2022/05/28 06:23:45;;;;;;;4.50;1.90;;;;;;;;;;4973686;28;20423;-57
2022/05/28 06:26:12;;;;;;;6.60;2.03;;;;;;;;;;4973880;28;20472;-58
2022/05/28 06:28:38;;;;;;;8.03;2.80;;;;;;;;;;4973609;28;20465;-57
2022/05/28 06:31:05;;;;;;;7.10;2.40;;;;;;;;;;4974384;28;20421;-58
2022/05/28 06:33:31;;;;;;;8.87;2.27;;;;;;;;;;4973783;28;20893;-57
2022/05/28 06:35:58;;;;;;;8.00;2.60;;;;;;;;;;4974200;28;20826;-58
2022/05/28 06:38:24;;;;;;;2.90;1.50;;;;;;;;;;4974156;28;20515;-58
2022/05/28 06:40:51;;;;;;;4.73;2.17;;;;;;;;;;4974275;28;20413;-58
2022/05/28 06:43:17;;;;;;;9.13;2.43;;;;;;;;;;4973983;28;20790;-58
2022/05/28 06:45:43;;;;;;;3.00;1.57;;;;;;;;;;4980262;28;20416;-58
2022/05/28 06:48:09;;;;;;;9.83;2.03;;;;;;;;;;4971242;28;20798;-56
2022/05/28 06:53:20;;;;;;;8.73;2.27;;;;;;;;;;4973081;28;20436;-58
2022/05/28 06:55:47;;;;;;;5.50;1.80;;;;;;;;;;4971726;28;20474;-58
2022/05/28 06:58:13;;;;;;;4.27;1.90;;;;;;;;;;4973419;28;20797;-58
2022/05/28 07:00:39;;;;;;;3.93;1.60;;;;;;;;;;4973515;28;20418;-58
2022/05/28 07:03:05;;;;;;;7.20;2.23;;;;;;;;;;4958021;28;20992;-58
2022/05/28 07:05:32;;;;;;;5.63;1.97;;;;;;;;;;4957534;28;20407;-57
2022/05/28 07:07:58;;;;;;;4.37;1.40;;;;;;;;;;4973263;28;20414;-57
2022/05/28 07:10:24;;;;;;;8.13;2.97;;;;;;;;;;4973340;28;20468;-58
2022/05/28 07:12:50;;;;;;;10.27;2.30;;;;;;;;;;4973413;28;20425;-58
2022/05/28 07:15:16;;;;;;;6.47;2.40;;;;;;;;;;4973745;28;20457;-58
2022/05/28 07:17:42;;;;;;;5.40;1.50;;;;;;;;;;4973959;28;20877;-57
2022/05/28 07:20:10;;;;;;;5.00;1.60;;;;;;;;;;4972833;28;20449;-57
2022/05/28 07:22:36;;;;;;;9.57;2.10;;;;;;;;;;4973166;28;20439;-58
2022/05/28 07:25:03;;;;;;;4.97;2.07;;;;;;;;;;4973428;28;20389;-58
2022/05/28 07:27:29;;;;;;;5.13;2.00;;;;;;;;;;4973612;28;20981;-58
2022/05/28 07:29:55;;;;;;;7.90;2.10;;;;;;;;;;4972790;28;20435;-59
2022/05/28 07:32:24;;;;;;;6.97;1.87;;;;;;;;;;4972719;28;20397;-58
2022/05/28 07:34:50;;;;;;;3.00;1.70;;;;;;;;;;4970900;28;20394;-59
2022/05/28 07:37:16;;;;;;;5.50;1.83;;;;;;;;;;4954998;29;20383;-58
2022/05/28 07:39:42;;;;;;;3.57;1.73;;;;;;;;;;4963889;28;20798;-59
2022/05/28 07:42:08;;;;;;;4.20;1.97;;;;;;;;;;4973932;28;20855;-59
2022/05/28 07:44:35;;;;;;;6.63;1.40;;;;;;;;;;4974290;28;20872;-58
2022/05/28 07:47:04;;;;;;;2.20;1.60;;;;;;;;;;4974099;28;20383;-58
2022/05/28 07:49:30;;;;;;;4.17;1.87;;;;;;;;;;4973958;28;20854;-59
2022/05/28 07:51:56;;;;;;;3.53;1.70;;;;;;;;;;4965119;28;20406;-59
2022/05/28 07:54:22;;;;;;;2.83;1.40;;;;;;;;;;4958697;29;20384;-58
2022/05/28 07:56:48;;;;;;;3.30;2.00;;;;;;;;;;4958202;29;20865;-58
2022/05/28 07:59:14;;;;;;;6.30;2.00;;;;;;;;;;4957802;29;20409;-58
2022/05/28 08:01:40;;;;;;;5.13;1.83;;;;;;;;;;4958213;29;20814;-58
2022/05/28 08:04:06;;;;;;;8.50;2.27;;;;;;;;;;4957715;29;20408;-58
2022/05/28 08:06:32;;;;;;;3.93;1.87;;;;;;;;;;4957583;29;20412;-58
2022/05/28 08:08:59;;;;;;;6.90;1.90;;;;;;;;;;4957240;29;20437;-59
2022/05/28 08:11:25;;;;;;;5.70;1.83;;;;;;;;;;4958115;29;20377;-58
2022/05/28 08:13:52;;;;;;;10.10;1.80;;;;;;;;;;4957342;29;20385;-58
2022/05/28 08:16:18;;;;;;;2.70;1.63;;;;;;;;;;4957012;29;20422;-58
2022/05/28 08:18:44;;;;;;;5.87;2.10;;;;;;;;;;4956686;29;20433;-58
2022/05/28 08:23:55;;;;;;;3.93;1.70;;;;;;;;;;4956509;29;20445;-58
2022/05/28 08:26:21;;;;;;;6.77;1.73;;;;;;;;;;4957390;29;20857;-58
2022/05/28 08:28:48;;;;;;;2.90;1.50;;;;;;;;;;4969561;28;20823;-59
2022/05/28 08:31:14;;;;;;;2.47;1.47;;;;;;;;;;4977335;28;20476;-59
2022/05/28 08:33:41;;;;;;;4.17;2.13;;;;;;;;;;4976179;28;20411;-59
2022/05/28 08:36:07;;;;;;;1.87;1.30;;;;;;;;;;4976152;28;20408;-58
2022/05/28 08:38:33;;;;;;;4.10;1.60;;;;;;;;;;4975439;28;20487;-59
2022/05/28 08:41:09;;;;;;;2.20;1.20;;;;;;;;;;4975692;28;20526;-59
2022/05/28 08:43:36;;;;;;;3.90;1.50;;;;;;;;;;4976583;28;20952;-59
2022/05/28 08:46:03;;;;;;;5.70;1.53;;;;;;;;;;4976802;28;20422;-59
2022/05/28 08:48:40;;;;;;;2.53;1.40;;;;;;;;;;4976026;28;20495;-58
2022/05/28 08:51:09;;;;;;;7.33;1.70;;;;;;;;;;4975866;28;20434;-58
2022/05/28 08:53:41;;;;;;;3.47;1.57;;;;;;;;;;4974996;28;20424;-59
2022/05/28 08:56:08;;;;;;;7.17;1.87;;;;;;;;;;4975210;28;20818;-58
2022/05/28 08:58:35;;;;;;;3.13;1.40;;;;;;;;;;4974924;28;20484;-58
2022/05/28 09:01:03;;;;;;;3.47;1.80;;;;;;;;;;4969718;28;20931;-58
2022/05/28 09:03:32;;;;;;;6.60;1.97;;;;;;;;;;4956615;28;20492;-58
2022/05/28 09:06:01;;;;;;;2.40;1.67;;;;;;;;;;4968856;28;20413;-58
2022/05/28 09:08:27;;;;;;;8.70;1.53;;;;;;;;;;4974760;28;20451;-58
2022/05/28 09:10:54;;;;;;;3.93;1.10;;;;;;;;;;4974705;28;20495;-58
2022/05/28 09:13:23;;;;;;;3.93;1.50;;;;;;;;;;4974380;28;20794;-59
2022/05/28 09:15:50;;;;;;;6.40;1.73;;;;;;;;;;4974956;28;20822;-59
2022/05/28 09:18:17;;;;;;;2.63;1.43;;;;;;;;;;4974860;28;20408;-58
2022/05/28 09:20:43;;;;;;;5.93;1.60;;;;;;;;;;4974824;28;20405;-59
2022/05/28 09:23:10;;;;;;;4.93;1.30;;;;;;;;;;4974472;28;20405;-60
2022/05/28 09:25:40;;;;;;;1.67;0.97;;;;;;;;;;4974727;28;20409;-59
2022/05/28 09:28:12;;;;;;;3.77;1.23;;;;;;;;;;4975009;28;20412;-59
2022/05/28 09:30:44;;;;;;;6.97;1.60;;;;;;;;;;4974773;28;20505;-59
2022/05/28 09:33:29;;;;;;;2.83;1.20;;;;;;;;;;4975032;28;20405;-59
2022/05/28 09:35:55;;;;;;;3.93;1.57;;;;;;;;;;4974682;28;20401;-58
2022/05/28 09:38:24;;;;;;;2.47;2.00;;;;;;;;;;4975158;28;20735;-58
2022/05/28 09:40:51;;;;;;;4.63;1.83;;;;;;;;;;4975258;28;20774;-59
2022/05/28 09:43:36;;;;;;;3.83;1.50;;;;;;;;;;4975460;28;20402;-59
2022/05/28 09:46:18;;;;;;;4.03;1.50;;;;;;;;;;4974778;28;20974;-59
2022/05/28 09:48:46;;;;;;;7.37;2.27;;;;;;;;;;4974605;28;20558;-59
2022/05/28 09:51:39;;;;;;;2.13;1.50;;;;;;;;;;4974420;28;20397;-59
2022/05/28 09:54:20;;;;;;;3.07;1.97;;;;;;;;;;4969756;28;20455;-59
2022/05/28 09:56:51;;;;;;;2.10;1.70;;;;;;;;;;4974368;28;20777;-59
2022/05/28 09:59:22;;;;;;;3.43;1.10;;;;;;;;;;4974050;28;20421;-58
2022/05/28 10:01:55;;;;;;;3.80;1.53;;;;;;;;;;4974035;28;20444;-59
2022/05/28 10:04:31;;;;;;;4.50;1.60;;;;;;;;;;4974147;28;20423;-59
2022/05/28 10:07:04;;;;;;;1.83;1.20;;;;;;;;;;4974260;28;20819;-58
2022/05/28 10:09:31;;;;;;;4.63;1.23;;;;;;;;;;4973698;28;20479;-59
2022/05/28 10:11:57;;;;;;;3.20;1.77;;;;;;;;;;4974147;28;20777;-58
2022/05/28 10:14:24;;;;;;;2.33;1.20;;;;;;;;;;4973890;28;20403;-58
2022/05/28 10:16:54;;;;;;;2.80;1.70;;;;;;;;;;4975061;28;20413;-59
2022/05/28 10:19:25;;;;;;;2.10;1.27;;;;;;;;;;4974551;28;20435;-58
2022/05/28 10:21:52;;;;;;;2.70;1.67;;;;;;;;;;4974030;28;20451;-59
2022/05/28 10:24:19;;;;;;;4.17;1.17;;;;;;;;;;4973877;28;20401;-58
2022/05/28 10:26:47;;;;;;;4.53;1.67;;;;;;;;;;4974005;28;20772;-58
2022/05/28 10:29:16;;;;;;;3.40;2.13;;;;;;;;;;4973942;28;20467;-59
2022/05/28 10:31:45;;;;;;;4.70;1.80;;;;;;;;;;4974354;28;20405;-58
2022/05/28 10:34:23;;;;;;;7.47;2.20;;;;;;;;;;4972875;28;20428;-58
2022/05/28 10:36:49;;;;;;;2.93;1.67;;;;;;;;;;4973280;28;20404;-58
2022/05/28 10:39:18;;;;;;;1.97;1.30;;;;;;;;;;4973159;28;20431;-57
2022/05/28 10:41:44;;;;;;;4.00;1.87;;;;;;;;;;4974099;28;20542;-58
2022/05/28 10:44:13;;;;;;;3.73;1.60;;;;;;;;;;4973527;28;20416;-58
2022/05/28 10:46:42;;;;;;;3.80;1.50;;;;;;;;;;4973689;28;20404;-59
2022/05/28 10:49:26;;;;;;;2.77;1.30;;;;;;;;;;4973657;28;20463;-59
2022/05/28 10:51:52;;;;;;;3.03;1.73;;;;;;;;;;4973184;28;20440;-57
2022/05/28 10:54:23;;;;;;;2.83;1.50;;;;;;;;;;4972918;28;20410;-56
2022/05/28 10:56:49;;;;;;;3.07;1.50;;;;;;;;;;4973087;28;20412;-56
2022/05/28 10:59:21;;;;;;;3.10;1.60;;;;;;;;;;4972709;28;20429;-56
2022/05/28 11:01:56;;;;;;;2.37;1.70;;;;;;;;;;4972469;28;20463;-56
2022/05/28 11:04:48;;;;;;;3.77;2.00;;;;;;;;;;4955526;28;20413;-56
2022/05/28 11:07:22;;;;;;;3.67;1.83;;;;;;;;;;4961428;28;21001;-56
2022/05/28 11:09:57;;;;;;;4.67;1.90;;;;;;;;;;4972337;28;20522;-58
2022/05/28 11:12:43;;;;;;;2.27;1.50;;;;;;;;;;4956172;28;20504;-56
2022/05/28 11:15:09;;;;;;;6.07;1.87;;;;;;;;;;4970873;28;20518;-58
2022/05/28 11:17:41;;;;;;;3.53;1.47;;;;;;;;;;4973059;28;20496;-58
2022/05/28 11:20:19;;;;;;;3.20;1.50;;;;;;;;;;4972346;28;20446;-58
2022/05/28 11:23:04;;;;;;;3.80;1.67;;;;;;;;;;4973270;28;20416;-58
2022/05/28 11:25:46;;;;;;;6.17;1.73;;;;;;;;;;4972665;28;20508;-59
2022/05/28 11:28:27;;;;;;;5.57;1.60;;;;;;;;;;4975504;28;20398;-59
2022/05/28 11:30:55;;;;;;;3.50;1.60;;;;;;;;;;4976434;28;20955;-59
2022/05/28 11:33:32;;;;;;;1.93;1.37;;;;;;;;;;4976376;28;20919;-59
2022/05/28 11:36:04;;;;;;;4.73;1.83;;;;;;;;;;4976859;28;20412;-58
2022/05/28 11:38:35;;;;;;;2.17;1.40;;;;;;;;;;4977074;28;20455;-58
2022/05/28 11:41:21;;;;;;;7.30;1.50;;;;;;;;;;4974305;28;20425;-58
2022/05/28 11:43:50;;;;;;;2.70;1.40;;;;;;;;;;4970357;28;20419;-59
2022/05/28 11:46:49;;;;;;;3.80;1.53;;;;;;;;;;4968947;28;20413;-57
2022/05/28 11:52:26;;;;;;;3.43;1.70;;;;;;;;;;4974325;28;20879;-56
2022/05/28 11:54:55;;;;;;;5.90;1.60;;;;;;;;;;4974694;28;20406;-56
2022/05/28 11:57:28;;;;;;;5.13;1.87;;;;;;;;;;4974714;28;20547;-57
2022/05/28 11:59:54;;;;;;;8.23;2.77;;;;;;;;;;4974732;28;20800;-56
2022/05/28 12:02:24;;;;;;;3.10;1.47;;;;;;;;;;4975069;28;20454;-56
2022/05/28 12:04:51;;;;;;;4.60;1.77;;;;;;;;;;4975661;28;20412;-56
2022/05/28 12:07:29;;;;;;;3.93;1.70;;;;;;;;;;4976124;28;20411;-56
2022/05/28 12:09:55;;;;;;;4.70;1.77;;;;;;;;;;4975662;28;20837;-56
2022/05/28 12:12:30;;;;;;;6.70;1.60;;;;;;;;;;4975858;28;20404;-56
2022/05/28 12:15:20;;;;;;;5.43;1.60;;;;;;;;;;4975651;28;20495;-56
2022/05/28 12:17:56;;;;;;;3.43;1.77;;;;;;;;;;4975727;28;20402;-57
2022/05/28 12:20:28;;;;;;;6.47;2.43;;;;;;;;;;4975555;28;20436;-57
2022/05/28 12:22:55;;;;;;;3.00;1.40;;;;;;;;;;4974918;28;20420;-57
2022/05/28 12:25:31;;;;;;;6.07;1.50;;;;;;;;;;4974774;28;20423;-56
2022/05/28 12:27:57;;;;;;;4.20;1.40;;;;;;;;;;4974832;28;20381;-57
2022/05/28 12:30:37;;;;;;;5.07;1.57;;;;;;;;;;4974573;28;20561;-57
2022/05/28 12:33:03;;;;;;;6.60;1.70;;;;;;;;;;4975069;28;20420;-56
2022/05/28 12:35:43;;;;;;;2.20;1.70;;;;;;;;;;4975202;28;20436;-58
2022/05/28 12:38:09;;;;;;;3.40;1.70;;;;;;;;;;4974629;28;20401;-57
2022/05/28 12:40:53;;;;;;;2.03;1.50;;;;;;;;;;4974833;28;20432;-57
2022/05/28 12:43:19;;;;;;;3.97;1.90;;;;;;;;;;4974963;28;20438;-57
2022/05/28 12:45:46;;;;;;;3.30;1.60;;;;;;;;;;4975319;28;20833;-55
2022/05/28 12:48:23;;;;;;;3.30;1.57;;;;;;;;;;4974874;28;20435;-57
2022/05/28 12:50:49;;;;;;;6.40;2.00;;;;;;;;;;4956104;29;20431;-57
2022/05/28 12:53:19;;;;;;;2.63;1.70;;;;;;;;;;4959699;28;20400;-57
2022/05/28 12:55:45;;;;;;;4.83;2.20;;;;;;;;;;4975015;28;20401;-57
2022/05/28 12:58:15;;;;;;;4.30;1.50;;;;;;;;;;4974761;28;20407;-57
2022/05/28 13:00:45;;;;;;;3.30;2.00;;;;;;;;;;4973805;28;20959;-56
2022/05/28 13:03:13;;;;;;;5.07;1.70;;;;;;;;;;4974539;28;20901;-56
2022/05/28 13:05:42;;;;;;;3.70;1.67;;;;;;;;;;4974478;28;20424;-56
2022/05/28 13:08:13;;;;;;;2.77;1.60;;;;;;;;;;4974807;28;20919;-57
2022/05/28 13:10:46;;;;;;;2.33;1.40;;;;;;;;;;4973904;28;20490;-57
2022/05/28 13:13:18;;;;;;;3.73;1.80;;;;;;;;;;4955256;29;20413;-54
2022/05/28 13:15:56;;;;;;;6.93;1.70;;;;;;;;;;4971030;28;20423;-54
2022/05/28 13:18:38;;;;;;;9.03;1.63;;;;;;;;;;4974384;28;20432;-54
2022/05/28 13:21:04;;;;;;;1.73;1.30;;;;;;;;;;4974300;28;20421;-56
2022/05/28 13:23:50;;;;;;;2.43;1.60;;;;;;;;;;4969999;28;20450;-57
2022/05/28 13:26:36;;;;;;;3.63;1.53;;;;;;;;;;4958674;28;20418;-55
2022/05/28 13:29:02;;;;;;;2.40;1.73;;;;;;;;;;4957921;28;20470;-57
2022/05/28 13:31:30;;;;;;;1.97;1.73;;;;;;;;;;4974501;28;20401;-58
2022/05/28 13:33:57;;;;;;;2.80;1.47;;;;;;;;;;4974252;28;20468;-58
2022/05/28 13:36:23;;;;;;;4.17;2.10;;;;;;;;;;4974561;28;20411;-57
2022/05/28 13:38:50;;;;;;;12.30;1.60;;;;;;;;;;4974251;28;20799;-58
2022/05/28 13:41:18;;;;;;;2.60;1.60;;;;;;;;;;4974224;28;20805;-58
2022/05/28 13:44:05;;;;;;;6.20;1.63;;;;;;;;;;4974432;28;20428;-59
2022/05/28 13:46:34;;;;;;;3.63;1.80;;;;;;;;;;4975401;28;20384;-59
2022/05/28 13:49:02;;;;;;;4.70;1.60;;;;;;;;;;4974258;28;20464;-58
2022/05/28 13:51:29;;;;;;;3.47;1.63;;;;;;;;;;4974107;28;20438;-58
2022/05/28 13:53:57;;;;;;;3.90;1.67;;;;;;;;;;4974876;28;20424;-58
2022/05/28 13:56:25;;;;;;;1.53;1.37;;;;;;;;;;4975353;28;20492;-58
2022/05/28 13:58:51;;;;;;;4.90;1.80;;;;;;;;;;4974399;28;20452;-58
2022/05/28 14:01:27;;;;;;;3.20;1.50;;;;;;;;;;4974194;28;20416;-58
2022/05/28 14:03:54;;;;;;;3.10;1.60;;;;;;;;;;4963189;28;20516;-55
2022/05/28 14:06:28;;;;;;;3.30;1.70;;;;;;;;;;4971401;28;20424;-55
2022/05/28 14:08:55;;;;;;;2.40;1.43;;;;;;;;;;4973467;28;20445;-56
2022/05/28 14:11:27;;;;;;;2.20;1.60;;;;;;;;;;4973789;28;20411;-56
2022/05/28 14:13:54;;;;;;;3.60;1.80;;;;;;;;;;4972078;28;20767;-56
2022/05/28 14:16:39;;;;;;;3.23;1.77;;;;;;;;;;4973499;28;20412;-56
2022/05/28 14:19:06;;;;;;;2.33;1.60;;;;;;;;;;4973347;28;20443;-56
2022/05/28 14:21:34;;;;;;;2.67;1.70;;;;;;;;;;4973683;28;20447;-57
2022/05/28 14:24:03;;;;;;;3.50;1.50;;;;;;;;;;4973060;28;20449;-56
2022/05/28 14:26:29;;;;;;;4.53;1.97;;;;;;;;;;4973319;28;20936;-57
2022/05/28 14:28:55;;;;;;;4.80;1.90;;;;;;;;;;4972950;28;20493;-57
2022/05/28 14:31:21;;;;;;;7.03;1.73;;;;;;;;;;4973073;28;20420;-56
2022/05/28 14:33:52;;;;;;;4.20;1.33;;;;;;;;;;4973153;28;20412;-57
2022/05/28 14:36:29;;;;;;;2.80;1.70;;;;;;;;;;4973136;28;20420;-56
2022/05/28 14:39:06;;;;;;;1.90;1.50;;;;;;;;;;4972738;28;20450;-56
2022/05/28 14:41:32;;;;;;;6.33;1.93;;;;;;;;;;4972822;28;20872;-57
2022/05/28 14:43:58;;;;;;;3.00;1.53;;;;;;;;;;4973050;28;20487;-56
2022/05/28 14:46:32;;;;;;;2.60;1.73;;;;;;;;;;4972857;28;20431;-57
2022/05/28 14:49:04;;;;;;;4.73;1.97;;;;;;;;;;4972914;28;20456;-56
2022/05/28 14:51:34;;;;;;;5.93;1.63;;;;;;;;;;4972693;28;20909;-56
2022/05/28 14:54:00;;;;;;;2.60;1.60;;;;;;;;;;4969938;28;20409;-55
2022/05/28 14:56:31;;;;;;;2.00;1.50;;;;;;;;;;4971134;28;20448;-55
2022/05/28 14:58:57;;;;;;;2.57;1.53;;;;;;;;;;4972643;28;20495;-54